• Join FlightAware (Why Join?)
  • Login
  • US Flag 
07:24AM EST


 

Airport Tracker/Info


-or-


 

Live Flight TrackerFlight Track Log ✈ SWA1435 ✈ 15.04.2013 ✈ KDAL - KSTL

Flight Track Log - Related Links

Times and Time Zones

All times are in EDT time to prevent confusion due to time zone crossing. See the SWA1435 flight status page for this flight to view local times or setup timezone preferences in your user account.

Time Position Orientation Groundspeed Altitude Reporting Facility
EDT Latitude Longitude Course Direction KTS MPH feet Rate Location/Type
07:09AM 32.8167 -96.8167 90° East 168 193 2,000  Level Dallas / Fort Worth TRACON
07:10AM 32.8167 -96.7500 90° East 273 314 4,400 2,640 Climbing Dallas / Fort Worth TRACON
07:12AM 32.9422 -96.7525 359° North 285 328 9,400 2,700 Climbing Fort Worth Center
07:13AM 33.0217 -96.7619 354° North 307 353 11,800 2,700 Climbing Fort Worth Center
07:14AM 33.1242 -96.7783 352° North 333 383 14,800 2,580 Climbing Fort Worth Center
07:15AM 33.2222 -96.7828 358° North 343 395 17,000 2,340 Climbing Fort Worth Center
07:16AM 33.3136 -96.7100 34° Northeast 348 400 19,500 2,520 Climbing Fort Worth Center
07:17AM 33.4072 -96.6369 33° Northeast 389 448 22,100 2,220 Climbing Fort Worth Center
07:18AM 33.4964 -96.5667 33° Northeast 412 474 24,000 1,800 Climbing Fort Worth Center
07:19AM 33.5961 -96.4883 33° Northeast 421 484 25,800 1,500 Climbing Fort Worth Center
07:20AM 33.7019 -96.4022 34° Northeast 432 497 27,100 1,500 Climbing Fort Worth Center
07:21AM 33.8097 -96.3186 33° Northeast 455 524 28,900 1,740 Climbing Fort Worth Center
07:22AM 33.9175 -96.2322 34° Northeast 462 532 30,600 1,620 Climbing Fort Worth Center
07:23AM 34.0314 -96.1428 33° Northeast 469 540 32,200 1,740 Climbing Fort Worth Center
07:24AM 34.1431 -96.0508 34° Northeast 458 527 34,100 1,620 Climbing Fort Worth Center
07:25AM 34.2547 -95.9611 34° Northeast 460 529 35,500 1,200 Climbing Fort Worth Center
07:26AM 34.3600 -95.8739 34° Northeast 466 536 36,600 720 Climbing Fort Worth Center
07:27AM 34.4717 -95.7836 34° Northeast 461 531 37,000 180 Climbing Fort Worth Center
07:28AM 34.5769 -95.6961 34° Northeast 461 531 37,000  Level Fort Worth Center
07:29AM 34.6861 -95.6081 34° Northeast 461 531 37,000  Level Fort Worth Center
07:31AM 34.8700 -95.4575 34° Northeast 471 542 37,000  Level Kansas City Center
07:31AM 34.9539 -95.3914 33° Northeast 457 526 37,000  Level Memphis Center
07:32AM 35.0617 -95.3039 34° Northeast 457 526 37,000  Level Memphis Center
07:33AM 35.1564 -95.2256 34° Northeast 457 526 37,000  Level Memphis Center
07:34AM 35.2644 -95.1328 35° Northeast 457 526 37,000  Level Memphis Center
07:35AM 35.3697 -95.0447 34° Northeast 457 526 37,000  Level Memphis Center
07:36AM 35.4797 -94.9539 34° Northeast 457 526 37,000  Level Memphis Center
07:37AM 35.5850 -94.8653 34° Northeast 457 526 37,000  Level Memphis Center
07:38AM 35.6925 -94.7739 35° Northeast 457 526 37,000  Level Memphis Center
07:39AM 35.8000 -94.6825 35° Northeast 457 526 37,000  Level Memphis Center
07:40AM 35.9203 -94.5811 34° Northeast 463 533 37,000  Level Memphis Center
07:41AM 36.0275 -94.4917 34° Northeast 463 533 37,000  Level Memphis Center
07:42AM 36.1369 -94.3969 35° Northeast 463 533 37,000  Level Memphis Center
07:43AM 36.2464 -94.3047 34° Northeast 463 533 37,000  Level Memphis Center
07:45AM 36.4011 -94.1708 35° Northeast 476 548 37,000  Level Kansas City Center
07:46AM 36.5103 -94.0767 35° Northeast 477 549 37,000  Level Kansas City Center
07:47AM 36.6408 -93.9631 35° Northeast 478 550 37,000  Level Kansas City Center
07:48AM 36.7508 -93.8667 35° Northeast 481 554 37,000  Level Kansas City Center
07:49AM 36.8611 -93.7719 34° Northeast 481 554 37,000  Level Kansas City Center
07:50AM 36.9578 -93.6867 35° Northeast 479 551 37,000  Level Kansas City Center
07:51AM 37.0650 -93.5894 36° Northeast 476 548 37,000  Level Kansas City Center
07:52AM 37.1761 -93.4956 34° Northeast 477 549 37,000  Level Kansas City Center
07:53AM 37.2856 -93.4006 35° Northeast 478 550 37,000  Level Kansas City Center
07:54AM 37.4122 -93.2778 38° Northeast 476 548 37,000  Level Kansas City Center
07:55AM 37.5083 -93.1583 45° Northeast 482 555 37,000  Level Kansas City Center
07:56AM 37.6086 -93.0433 42° Northeast 483 556 37,000  Level Kansas City Center
07:57AM 37.7086 -92.9250 43° Northeast 487 560 37,000 -240 Level Kansas City Center
07:58AM 37.8078 -92.8072 43° Northeast 487 560 36,600 -780 Descending Kansas City Center
07:59AM 37.9078 -92.6872 43° Northeast 480 552 35,500 -1,080 Descending Kansas City Center
08:00AM 37.9836 -92.5464 56° Northeast 480 552 34,500 -1,140 Descending Kansas City Center
08:01AM 38.0575 -92.4039 57° Northeast 485 558 33,200 -2,880 Descending Kansas City Center
08:02AM 38.1061 -92.2425 69° East 500 575 28,700 -3,960 Descending Kansas City Center
08:03AM 38.1661 -92.0656 67° East 507 583 25,200 -3,000 Descending Kansas City Center
08:04AM 38.2456 -91.9275 54° Northeast 485 558 22,700 -2,520 Descending Kansas City Center
08:05AM 38.3172 -91.8003 54° Northeast 451 519 20,100 -2,700 Descending Kansas City Center
08:06AM 38.3672 -91.6658 65° Northeast 421 484 17,300 -2,760 Descending Kansas City Center
08:07AM 38.4075 -91.5311 69° East 409 471 14,700 -1,980 Descending Kansas City Center
08:08AM 38.4456 -91.4050 69° East 387 445 13,300 -1,440 Descending Kansas City Center
08:09AM 38.4778 -91.2981 69° East 370 426 11,800 -1,260 Descending Kansas City Center
08:10AM 38.5333 -91.1192 68° East 358 412 11,000 -660 Descending FAA TRACON SMA TRACON (SMA)
08:10AM 38.5500 -91.0875 56° Northeast 353 406 11,000 -300 Level FAA TRACON SMA TRACON (SMA)
08:11AM 38.5656 -91.0564 57° Northeast 343 395 10,800 -1,500 Descending FAA TRACON SMA TRACON (SMA)
08:11AM 38.5858 -91.0189 55° Northeast 334 384 10,000 -2,280 Descending FAA TRACON SMA TRACON (SMA)
08:11AM 38.6003 -90.9889 58° Northeast 329 379 9,300 -1,980 Descending FAA TRACON SMA TRACON (SMA)
08:12AM 38.6158 -90.9592 56° Northeast 327 376 8,700 -1,380 Descending FAA TRACON SMA TRACON (SMA)
08:12AM 38.6336 -90.9231 58° Northeast 317 365 8,400 -900 Descending FAA TRACON SMA TRACON (SMA)
08:12AM 38.6472 -90.8953 58° Northeast 305 351 8,100 -600 Descending FAA TRACON SMA TRACON (SMA)
08:13AM 38.6614 -90.8689 55° Northeast 295 339 8,000 -180 Descending FAA TRACON SMA TRACON (SMA)
08:13AM 38.6747 -90.8433 56° Northeast 285 328 8,000  Level FAA TRACON SMA TRACON (SMA)
08:13AM 38.6908 -90.8108 58° Northeast 282 325 8,000 -300 Level FAA TRACON SMA TRACON (SMA)
08:14AM 38.7039 -90.7847 57° Northeast 283 326 7,800 -1,380 Descending FAA TRACON SMA TRACON (SMA)
08:14AM 38.7169 -90.7589 57° Northeast 282 325 7,100 -2,280 Descending FAA TRACON SMA TRACON (SMA)
08:14AM 38.7339 -90.7269 56° Northeast 283 326 6,300 -1,980 Descending FAA TRACON SMA TRACON (SMA)
08:15AM 38.7467 -90.7011 58° Northeast 282 325 5,700 -1,860 Descending FAA TRACON SMA TRACON (SMA)
08:15AM 38.7628 -90.6692 57° Northeast 281 323 5,000 -1,980 Descending FAA TRACON SMA TRACON (SMA)
08:15AM 38.7764 -90.6428 57° Northeast 284 327 4,500 -1,680 Descending FAA TRACON SMA TRACON (SMA)
08:16AM 38.7892 -90.6169 58° Northeast 282 325 4,000 -900 Descending FAA TRACON SMA TRACON (SMA)
08:16AM 38.8044 -90.5856 58° Northeast 273 314 3,900 -480 Descending FAA TRACON SMA TRACON (SMA)
08:16AM 38.8164 -90.5619 57° Northeast 261 300 3,700 -480 Descending FAA TRACON SMA TRACON (SMA)
08:17AM 38.8278 -90.5386 58° Northeast 251 289 3,600 -480 Descending FAA TRACON SMA TRACON (SMA)
08:17AM 38.8311 -90.5142 80° East 241 277 3,400 -480 Descending FAA TRACON SMA TRACON (SMA)
08:17AM 38.8281 -90.4858 98° East 220 253 3,300 -300 Descending FAA TRACON SMA TRACON (SMA)
08:18AM 38.8194 -90.4667 120° Southeast 203 234 3,200 -780 Descending FAA TRACON SMA TRACON (SMA)
08:18AM 38.8100 -90.4475 122° Southeast 203 234 2,800 -1,380 Descending FAA TRACON SMA TRACON (SMA)
08:18AM 38.7978 -90.4228 122° Southeast 213 245 2,300 -1,080 Descending FAA TRACON SMA TRACON (SMA)
08:19AM 38.7883 -90.4042 123° Southeast 207 238 2,100 -780 Descending FAA TRACON SMA TRACON (SMA)
08:19AM 38.7800 -90.3872 122° Southeast 190 219 1,800 -1,080 Descending FAA TRACON SMA TRACON (SMA)
08:19AM 38.7708 -90.3683 122° Southeast 165 190 1,400 -900 Descending FAA TRACON SMA TRACON (SMA)
08:20AM 38.7639 -90.3547 123° Southeast 152 175 1,200 -780 Descending FAA TRACON SMA TRACON (SMA)
08:20AM 38.7569 -90.3408 123° Southeast 149 171 900 -780 Descending FAA TRACON SMA TRACON (SMA)
08:20AM 38.7500 -90.3269 123° Southeast 149 171 700 -600 Descending FAA TRACON SMA TRACON (SMA)
08:22AM 38.7333 -90.3667 180° South  Level FlightAware Approximate
08:29AM 38.7487 -90.3700 180° South  Level Estimated